createdAt,value
2022-10-14T00:05:03.598Z,31.40
2022-10-14T00:20:04.678Z,33.80
2022-10-14T00:35:04.701Z,33.20
2022-10-14T00:50:04.824Z,26.80
2022-10-14T01:05:04.556Z,32.80
2022-10-14T01:20:05.388Z,32.30
2022-10-14T01:35:06.335Z,25.60
2022-10-14T01:50:08.278Z,24.10
2022-10-14T02:05:09.252Z,23.10
2022-10-14T02:20:10.650Z,28.90
2022-10-14T02:35:11.151Z,27.20
2022-10-14T02:50:12.267Z,30.70
2022-10-14T03:05:13.582Z,30.70
2022-10-14T03:20:14.957Z,25.60
2022-10-14T03:35:16.322Z,23.00
2022-10-14T03:50:17.189Z,26.40
2022-10-14T04:05:17.544Z,28.60
2022-10-14T04:20:17.650Z,31.10
2022-10-14T04:35:18.267Z,32.40
2022-10-14T04:50:18.441Z,35.00
2022-10-14T05:05:18.522Z,50.60
2022-10-14T05:20:18.643Z,55.60
2022-10-14T05:35:29.258Z,56.30
2022-10-14T05:50:23.872Z,61.10
2022-10-14T06:05:23.963Z,67.30
2022-10-14T06:20:24.091Z,79.50
2022-10-14T06:35:24.166Z,67.80
2022-10-14T06:50:24.317Z,61.70
2022-10-14T07:05:24.383Z,58.80
2022-10-14T07:20:24.577Z,50.10
2022-10-14T07:35:24.696Z,59.20
2022-10-14T07:50:24.827Z,47.50
2022-10-14T08:05:37.653Z,42.90
2022-10-14T08:20:30.706Z,42.80
2022-10-14T08:35:31.640Z,24.30
2022-10-14T08:50:31.311Z,26.30
2022-10-14T09:05:31.412Z,25.10
2022-10-14T09:20:32.791Z,21.50
2022-10-14T09:35:32.958Z,25.70
2022-10-14T09:50:34.374Z,18.90
2022-10-14T10:05:34.875Z,18.70
2022-10-14T10:20:35.860Z,18.40
2022-10-14T10:35:37.173Z,13.70
2022-10-14T10:50:38.610Z,12.90
2022-10-14T11:05:38.667Z,20.20
2022-10-14T11:20:38.868Z,12.90
2022-10-14T11:35:39.551Z,15.80
2022-10-14T11:50:41.926Z,12.80
2022-10-14T12:05:44.563Z,13.10
2022-10-14T12:20:44.693Z,12.10
2022-10-14T12:35:46.056Z,15.20
2022-10-14T12:50:47.968Z,12.30
2022-10-14T13:05:50.268Z,14.50
2022-10-14T13:20:50.424Z,10.30
2022-10-14T13:35:51.000Z,9.00
2022-10-14T13:50:51.212Z,9.60
2022-10-14T14:05:51.179Z,9.50
2022-10-14T14:20:51.395Z,9.60
2022-10-14T14:35:51.415Z,12.20
2022-10-14T14:50:52.041Z,10.00
2022-10-14T15:05:52.170Z,9.80
2022-10-14T15:20:52.747Z,14.20
2022-10-14T15:35:53.295Z,9.40
2022-10-14T15:50:53.411Z,9.70
2022-10-14T16:05:53.684Z,11.90
2022-10-14T16:20:53.694Z,22.10
2022-10-14T16:35:55.039Z,15.80
2022-10-14T16:50:55.665Z,13.60
2022-10-14T17:05:56.265Z,15.70
2022-10-14T17:20:56.834Z,15.00
2022-10-14T17:35:57.946Z,17.60
2022-10-14T17:50:57.537Z,34.00
2022-10-14T18:05:58.142Z,29.80
2022-10-14T18:20:58.263Z,43.80
2022-10-14T18:35:58.863Z,19.50
2022-10-14T18:51:00.716Z,21.30
2022-10-14T19:06:03.622Z,17.40
2022-10-14T19:21:04.949Z,12.00
2022-10-14T19:36:05.549Z,12.60
2022-10-14T19:51:07.267Z,11.10
2022-10-14T20:06:08.035Z,10.90
2022-10-14T20:21:08.903Z,9.60
2022-10-14T20:36:09.028Z,9.70
2022-10-14T20:51:09.118Z,8.10
2022-10-14T21:06:10.205Z,9.20
2022-10-14T21:21:11.643Z,9.50
2022-10-14T21:36:14.949Z,10.10
2022-10-14T21:51:15.551Z,8.80
2022-10-14T22:06:16.959Z,10.10
2022-10-14T22:21:18.898Z,9.80
2022-10-14T22:36:23.581Z,11.40
2022-10-14T22:51:24.527Z,14.80
2022-10-14T23:06:25.025Z,15.40
2022-10-14T23:21:24.654Z,15.50
2022-10-14T23:36:25.214Z,16.80
2022-10-14T23:51:24.824Z,17.20
